createdAt,value
2018-02-24T00:00:23.505Z,18.87
2018-02-24T00:02:51.041Z,19.95
2018-02-24T00:05:18.545Z,19.83
2018-02-24T00:07:46.023Z,19.30
2018-02-24T00:10:13.525Z,20.73
2018-02-24T00:12:41.019Z,21.40
2018-02-24T00:15:08.525Z,20.73
2018-02-24T00:17:36.047Z,20.60
2018-02-24T00:20:03.560Z,20.65
2018-02-24T00:22:31.075Z,23.08
2018-02-24T00:24:58.569Z,22.70
2018-02-24T00:27:26.112Z,22.98
2018-02-24T00:29:53.621Z,23.80
2018-02-24T00:32:21.167Z,24.20
2018-02-24T00:34:48.658Z,23.30
2018-02-24T00:37:16.150Z,23.12
2018-02-24T00:39:43.653Z,24.37
2018-02-24T00:42:11.148Z,23.92
2018-02-24T00:44:38.664Z,23.87
2018-02-24T00:47:06.158Z,23.95
2018-02-24T00:49:33.700Z,24.15
2018-02-24T00:52:01.212Z,24.65
2018-02-24T00:54:28.705Z,25.77
2018-02-24T00:56:56.223Z,23.80
2018-02-24T00:59:23.715Z,24.12
2018-02-24T01:01:51.227Z,25.15
2018-02-24T01:04:18.736Z,25.58
2018-02-24T01:06:46.242Z,25.17
2018-02-24T01:09:13.745Z,23.70
2018-02-24T01:11:41.240Z,25.00
2018-02-24T01:14:08.735Z,26.45
2018-02-24T01:16:36.223Z,26.52
2018-02-24T01:19:03.711Z,25.85
2018-02-24T01:21:31.207Z,26.83
2018-02-24T01:23:59.275Z,26.62
2018-02-24T01:26:26.786Z,26.75
2018-02-24T01:28:54.260Z,27.08
2018-02-24T01:31:21.753Z,27.23
2018-02-24T01:33:49.238Z,26.42
2018-02-24T01:36:16.730Z,27.50
2018-02-24T01:38:44.228Z,26.95
2018-02-24T01:41:11.717Z,26.83
2018-02-24T01:43:39.208Z,26.90
2018-02-24T01:46:06.701Z,27.83
2018-02-24T01:48:34.190Z,28.60
2018-02-24T01:51:01.695Z,28.08
2018-02-24T01:53:29.173Z,27.98
2018-02-24T01:55:56.699Z,28.48
2018-02-24T01:58:24.186Z,28.35
2018-02-24T02:00:51.688Z,28.45
2018-02-24T02:03:19.176Z,28.38
2018-02-24T02:05:46.708Z,28.75
2018-02-24T02:08:14.207Z,29.30
2018-02-24T02:10:41.688Z,29.08
2018-02-24T02:13:09.167Z,29.73
2018-02-24T02:15:36.660Z,28.75
2018-02-24T02:18:04.143Z,29.70
2018-02-24T02:20:31.660Z,28.90
2018-02-24T02:22:59.154Z,28.67
2018-02-24T02:25:26.677Z,28.40
2018-02-24T02:27:54.183Z,31.00
2018-02-24T02:30:21.672Z,28.80
2018-02-24T02:35:31.135Z,29.63
2018-02-24T02:37:58.636Z,29.80
2018-02-24T02:40:26.138Z,29.85
2018-02-24T02:42:53.650Z,29.20
2018-02-24T02:45:21.148Z,30.92
2018-02-24T02:47:48.637Z,29.30
2018-02-24T02:50:16.165Z,30.83
2018-02-24T02:52:43.666Z,30.00
2018-02-24T02:55:11.156Z,31.08
2018-02-24T02:57:38.651Z,29.58
2018-02-24T03:00:06.147Z,30.08
2018-02-24T03:02:33.641Z,30.90
2018-02-24T03:05:01.132Z,31.85
2018-02-24T03:07:28.638Z,28.73
2018-02-24T03:09:56.136Z,30.50
2018-02-24T03:12:23.676Z,31.87
2018-02-24T03:14:51.154Z,30.67
2018-02-24T03:17:18.653Z,31.75
2018-02-24T03:19:46.154Z,31.62
2018-02-24T03:22:13.652Z,31.83
2018-02-24T03:24:41.131Z,31.52
2018-02-24T03:27:08.624Z,32.22
2018-02-24T03:29:36.113Z,31.73
2018-02-24T03:32:03.615Z,30.42
2018-02-24T03:34:31.121Z,31.62
2018-02-24T03:36:58.608Z,31.02
2018-02-24T03:39:26.111Z,31.35
2018-02-24T03:41:53.620Z,30.88
2018-02-24T03:44:21.103Z,29.15
2018-02-24T03:46:48.622Z,31.23
2018-02-24T03:49:16.134Z,32.50
2018-02-24T03:51:43.624Z,31.30
2018-02-24T03:54:11.138Z,31.35
2018-02-24T03:56:38.657Z,30.45
2018-02-24T03:59:06.150Z,29.65
2018-02-24T04:01:33.631Z,30.77
2018-02-24T04:04:01.160Z,30.33
2018-02-24T04:06:28.666Z,30.73
2018-02-24T04:08:56.151Z,31.35
2018-02-24T04:11:23.668Z,29.48
2018-02-24T04:13:51.160Z,31.40
2018-02-24T04:16:18.683Z,28.98
2018-02-24T04:18:46.174Z,29.30
2018-02-24T04:21:13.685Z,29.95
2018-02-24T04:23:41.173Z,29.02
2018-02-24T04:26:08.673Z,29.70
2018-02-24T04:28:36.162Z,30.02
2018-02-24T04:31:03.671Z,29.58
2018-02-24T04:33:31.174Z,29.23
2018-02-24T04:35:58.676Z,29.80
2018-02-24T04:38:26.163Z,29.40
2018-02-24T04:40:53.661Z,29.60
2018-02-24T04:43:21.168Z,28.90
2018-02-24T04:45:48.646Z,29.95
2018-02-24T04:48:16.139Z,29.85
2018-02-24T04:50:43.627Z,28.62
2018-02-24T04:53:11.152Z,28.98
2018-02-24T04:55:38.639Z,29.08
2018-02-24T04:58:06.116Z,28.08
2018-02-24T05:00:33.616Z,28.52
2018-02-24T05:03:01.097Z,28.25
2018-02-24T05:05:28.612Z,28.50
2018-02-24T05:07:56.108Z,27.70
2018-02-24T05:10:23.611Z,28.77
2018-02-24T05:12:51.107Z,26.75
2018-02-24T05:15:18.602Z,26.70
2018-02-24T05:17:46.120Z,26.80
2018-02-24T05:20:13.627Z,27.13
2018-02-24T05:22:41.110Z,27.17
2018-02-24T05:25:08.595Z,26.62
2018-02-24T05:27:36.133Z,27.80
2018-02-24T05:30:03.644Z,27.17
2018-02-24T05:32:31.132Z,25.77
2018-02-24T05:34:58.637Z,26.83
2018-02-24T05:37:26.136Z,27.17
2018-02-24T05:39:53.636Z,28.10
2018-02-24T05:42:21.154Z,27.80
2018-02-24T05:44:48.678Z,26.50
2018-02-24T05:47:16.155Z,25.73
2018-02-24T05:49:43.696Z,27.37
2018-02-24T05:52:11.183Z,27.08
2018-02-24T05:54:38.672Z,26.52
2018-02-24T05:57:06.167Z,25.95
2018-02-24T05:59:33.659Z,25.92
2018-02-24T06:02:01.185Z,25.83
2018-02-24T06:04:28.684Z,26.45
2018-02-24T06:06:56.210Z,25.80
2018-02-24T06:09:23.706Z,25.05
2018-02-24T06:11:51.194Z,24.75
2018-02-24T06:14:18.688Z,25.75
2018-02-24T06:16:46.879Z,25.48
2018-02-24T06:19:14.372Z,25.30
2018-02-24T06:21:41.913Z,26.83
2018-02-24T06:24:09.409Z,25.48
2018-02-24T06:26:36.903Z,25.00
2018-02-24T06:29:04.406Z,25.77
2018-02-24T06:31:31.899Z,24.75
2018-02-24T06:33:59.387Z,25.52
2018-02-24T06:36:26.921Z,26.20
2018-02-24T06:38:54.844Z,26.55
2018-02-24T06:41:22.339Z,24.80
2018-02-24T06:43:49.848Z,26.35
2018-02-24T06:46:17.340Z,25.05
2018-02-24T06:48:44.881Z,25.58
2018-02-24T06:51:12.398Z,25.23
2018-02-24T06:53:39.916Z,25.45
2018-02-24T06:56:07.414Z,25.65
2018-02-24T06:58:34.894Z,26.27
2018-02-24T07:01:02.414Z,26.00
2018-02-24T07:03:29.904Z,26.23
2018-02-24T07:05:57.419Z,26.23
2018-02-24T07:08:24.916Z,26.12
2018-02-24T07:10:52.441Z,25.90
2018-02-24T07:13:19.957Z,26.30
2018-02-24T07:15:47.457Z,26.40
2018-02-24T07:18:14.946Z,25.30
2018-02-24T07:20:42.438Z,27.08
2018-02-24T07:23:09.929Z,26.00
2018-02-24T07:25:37.420Z,26.00
2018-02-24T07:28:04.925Z,27.35
2018-02-24T07:30:32.427Z,27.87
2018-02-24T07:32:59.923Z,27.33
2018-02-24T07:35:27.362Z,25.88
2018-02-24T07:37:54.845Z,26.37
2018-02-24T07:40:22.389Z,27.65
2018-02-24T07:42:49.899Z,28.35
2018-02-24T07:45:17.396Z,26.48
2018-02-24T07:47:44.903Z,26.17
2018-02-24T07:50:12.406Z,26.90
2018-02-24T07:52:39.971Z,25.73
2018-02-24T07:55:07.450Z,26.00
2018-02-24T07:57:34.942Z,27.62
2018-02-24T08:00:02.449Z,26.25
2018-02-24T08:02:29.980Z,25.98
2018-02-24T08:04:57.503Z,26.42
2018-02-24T08:07:25.025Z,27.65
2018-02-24T08:09:52.556Z,26.87
2018-02-24T08:12:20.039Z,29.65
2018-02-24T08:14:47.535Z,27.90
2018-02-24T08:19:44.207Z,27.67
2018-02-24T08:22:11.696Z,27.00
2018-02-24T08:24:39.213Z,27.67
2018-02-24T08:27:06.727Z,27.83
2018-02-24T08:29:34.223Z,27.15
2018-02-24T08:32:01.720Z,26.83
2018-02-24T08:34:29.219Z,25.95
2018-02-24T08:36:56.711Z,28.10
2018-02-24T08:39:24.198Z,27.40
2018-02-24T08:41:51.723Z,28.12
2018-02-24T08:44:19.219Z,27.75
2018-02-24T08:46:46.715Z,28.65
2018-02-24T08:49:14.231Z,25.90
2018-02-24T08:51:41.716Z,26.67
2018-02-24T08:54:09.150Z,26.70
2018-02-24T08:56:36.675Z,26.83
2018-02-24T08:59:04.169Z,27.62
2018-02-24T09:01:31.689Z,26.17
2018-02-24T09:03:59.232Z,26.60
2018-02-24T09:06:26.768Z,28.90
2018-02-24T09:08:54.274Z,26.67
2018-02-24T09:11:21.813Z,27.20
2018-02-24T09:13:49.909Z,26.58
2018-02-24T09:16:17.553Z,26.98
2018-02-24T09:18:45.146Z,26.42
2018-02-24T09:21:13.156Z,26.52
2018-02-24T09:23:40.707Z,26.87
2018-02-24T09:26:08.211Z,27.40
2018-02-24T09:28:35.705Z,26.37
2018-02-24T09:31:03.227Z,27.27
2018-02-24T09:33:30.891Z,26.40
2018-02-24T09:35:58.429Z,27.83
2018-02-24T09:38:25.976Z,27.42
2018-02-24T09:40:53.563Z,26.35
2018-02-24T09:43:21.080Z,27.45
2018-02-24T09:45:48.703Z,27.90
2018-02-24T09:48:16.196Z,27.05
2018-02-24T09:50:43.725Z,25.95
2018-02-24T09:53:11.229Z,26.15
2018-02-24T09:55:38.722Z,27.73
2018-02-24T09:58:06.234Z,26.98
2018-02-24T10:00:33.736Z,26.73
2018-02-24T10:03:01.302Z,25.85
2018-02-24T10:05:29.679Z,27.65
2018-02-24T10:07:57.176Z,26.00
2018-02-24T10:10:24.687Z,26.70
2018-02-24T10:12:52.171Z,25.58
2018-02-24T10:15:19.712Z,25.50
2018-02-24T10:17:47.232Z,25.20
2018-02-24T10:20:14.747Z,24.05
2018-02-24T10:22:42.252Z,24.00
2018-02-24T10:25:09.804Z,25.25
2018-02-24T10:27:37.307Z,24.98
2018-02-24T10:30:04.824Z,24.75
2018-02-24T10:32:32.385Z,23.55
2018-02-24T10:34:59.901Z,23.35
2018-02-24T10:37:27.442Z,24.98
2018-02-24T10:39:54.998Z,25.42
2018-02-24T10:42:22.493Z,23.05
2018-02-24T10:44:50.003Z,22.65
2018-02-24T10:47:17.501Z,23.50
2018-02-24T10:49:45.539Z,20.52
2018-02-24T10:52:13.240Z,20.08
2018-02-24T10:54:41.694Z,19.50
2018-02-24T10:57:09.184Z,20.62
2018-02-24T10:59:36.728Z,19.70
2018-02-24T11:02:04.223Z,21.02
2018-02-24T11:04:31.767Z,23.23
2018-02-24T11:06:59.299Z,20.15
2018-02-24T11:09:26.831Z,19.30
2018-02-24T11:11:54.331Z,19.08
2018-02-24T11:14:21.823Z,18.15
2018-02-24T11:16:49.313Z,18.73
2018-02-24T11:19:16.896Z,18.73
2018-02-24T11:21:44.479Z,18.62
2018-02-24T11:24:11.954Z,17.60
2018-02-24T11:26:39.445Z,16.70
2018-02-24T11:29:06.969Z,17.40
2018-02-24T11:31:34.491Z,19.25
2018-02-24T11:34:01.976Z,17.52
2018-02-24T11:36:29.496Z,17.40
2018-02-24T11:38:57.016Z,16.58
2018-02-24T11:41:24.499Z,18.45
2018-02-24T11:43:52.001Z,17.27
2018-02-24T11:46:19.513Z,16.65
2018-02-24T11:48:47.002Z,16.35
2018-02-24T11:51:14.500Z,18.00
2018-02-24T11:53:41.992Z,17.25
2018-02-24T11:56:09.482Z,17.15
2018-02-24T11:58:36.999Z,17.12
2018-02-24T12:01:04.515Z,18.85
2018-02-24T12:03:32.073Z,19.05
2018-02-24T12:05:59.507Z,17.33
2018-02-24T12:08:26.995Z,17.85
2018-02-24T12:10:54.499Z,17.48
2018-02-24T12:13:22.037Z,18.00
2018-02-24T12:15:49.525Z,17.65
2018-02-24T12:18:17.040Z,18.85
2018-02-24T12:20:44.531Z,17.58
2018-02-24T12:23:12.015Z,18.08
2018-02-24T12:25:45.126Z,17.45
2018-02-24T12:28:12.634Z,18.40
2018-02-24T12:30:40.120Z,17.33
2018-02-24T12:33:07.617Z,19.52
2018-02-24T12:35:35.132Z,19.80
2018-02-24T12:38:02.657Z,20.17
2018-02-24T12:40:30.155Z,19.67
2018-02-24T12:42:57.667Z,20.05
2018-02-24T12:45:25.165Z,19.42
2018-02-24T12:47:52.646Z,20.37
2018-02-24T12:50:20.149Z,20.23
2018-02-24T12:52:47.635Z,20.55
2018-02-24T12:55:15.140Z,19.40
2018-02-24T12:57:42.638Z,20.55
2018-02-24T13:00:10.130Z,19.33
2018-02-24T13:02:37.634Z,20.92
2018-02-24T13:05:05.136Z,20.20
2018-02-24T13:07:32.659Z,20.33
2018-02-24T13:10:00.171Z,21.10
2018-02-24T13:12:27.679Z,20.65
2018-02-24T13:14:55.167Z,20.35
2018-02-24T13:17:22.667Z,20.37
2018-02-24T13:19:50.158Z,20.00
2018-02-24T13:22:17.659Z,20.42
2018-02-24T13:24:45.145Z,21.55
2018-02-24T13:27:12.637Z,21.58
2018-02-24T13:29:40.131Z,20.60
2018-02-24T13:32:07.643Z,20.95
2018-02-24T13:34:35.149Z,21.27
2018-02-24T13:37:02.664Z,19.33
2018-02-24T13:39:30.167Z,19.90
2018-02-24T13:41:57.709Z,21.20
2018-02-24T13:44:25.245Z,21.73
2018-02-24T13:46:52.748Z,21.50
2018-02-24T13:49:20.240Z,20.77
2018-02-24T13:51:47.731Z,22.40
2018-02-24T13:54:15.249Z,21.48
2018-02-24T13:56:42.776Z,20.95
2018-02-24T13:59:10.273Z,22.75
2018-02-24T14:01:37.779Z,21.42
2018-02-24T14:04:05.273Z,22.42
2018-02-24T14:06:32.760Z,22.17
2018-02-24T14:09:00.303Z,20.75
2018-02-24T14:11:27.837Z,21.87
2018-02-24T14:13:55.373Z,21.77
2018-02-24T14:16:22.895Z,21.17
2018-02-24T14:18:50.439Z,21.33
2018-02-24T14:21:17.966Z,19.67
2018-02-24T14:23:45.488Z,20.50
2018-02-24T14:26:13.007Z,20.08
2018-02-24T14:28:40.574Z,18.92
2018-02-24T14:31:08.084Z,19.98
2018-02-24T14:33:35.628Z,18.95
2018-02-24T14:36:03.150Z,18.77
2018-02-24T14:38:30.655Z,18.92
2018-02-24T14:40:58.167Z,19.02
2018-02-24T14:43:25.684Z,19.27
2018-02-24T14:45:53.192Z,19.35
2018-02-24T14:48:20.720Z,18.92
2018-02-24T14:50:48.270Z,18.75
2018-02-24T14:53:15.803Z,19.30
2018-02-24T14:55:43.304Z,18.70
2018-02-24T14:58:10.824Z,18.95
2018-02-24T15:00:38.334Z,18.50
2018-02-24T15:03:05.875Z,17.73
2018-02-24T15:05:33.389Z,18.45
2018-02-24T15:08:00.948Z,18.52
2018-02-24T15:10:28.468Z,18.10
2018-02-24T15:12:56.003Z,17.27
2018-02-24T15:15:23.540Z,18.25
2018-02-24T15:17:51.053Z,19.05
2018-02-24T15:20:18.576Z,20.12
2018-02-24T15:22:46.097Z,18.75
2018-02-24T15:25:13.602Z,19.33
2018-02-24T15:27:41.119Z,18.70
2018-02-24T15:30:08.662Z,19.50
2018-02-24T15:32:36.165Z,18.83
2018-02-24T15:35:03.705Z,19.08
2018-02-24T15:37:31.216Z,19.92
2018-02-24T15:39:58.734Z,19.67
2018-02-24T15:42:26.251Z,19.05
2018-02-24T15:44:53.753Z,21.27
2018-02-24T15:47:21.269Z,20.50
2018-02-24T15:49:48.795Z,20.33
2018-02-24T15:52:16.291Z,20.88
2018-02-24T15:54:43.811Z,20.37
2018-02-24T15:57:11.307Z,19.95
2018-02-24T15:59:38.799Z,21.08
2018-02-24T16:02:06.315Z,19.85
2018-02-24T16:04:33.824Z,20.02
2018-02-24T16:07:01.338Z,20.42
2018-02-24T16:09:28.873Z,20.58
2018-02-24T16:11:56.400Z,19.95
2018-02-24T16:14:23.917Z,20.62
2018-02-24T16:16:51.446Z,19.73
2018-02-24T16:19:18.959Z,20.88
2018-02-24T16:21:46.487Z,23.12
2018-02-24T16:24:14.004Z,20.30
2018-02-24T16:26:41.517Z,20.30
2018-02-24T16:29:09.028Z,22.42
2018-02-24T16:31:36.546Z,21.62
2018-02-24T16:34:04.076Z,20.17
2018-02-24T16:36:31.618Z,21.08
2018-02-24T16:38:59.191Z,20.65
2018-02-24T16:41:26.760Z,20.85
2018-02-24T16:43:54.251Z,20.88
2018-02-24T16:46:21.806Z,21.15
2018-02-24T16:48:49.298Z,21.35
2018-02-24T16:51:16.826Z,21.70
2018-02-24T16:53:44.354Z,22.62
2018-02-24T16:56:11.894Z,21.25
2018-02-24T16:58:39.395Z,21.35
2018-02-24T17:01:06.941Z,24.08
2018-02-24T17:03:34.472Z,22.50
2018-02-24T17:06:01.977Z,22.05
2018-02-24T17:08:29.485Z,20.62
2018-02-24T17:10:56.983Z,22.08
2018-02-24T17:13:24.487Z,21.50
2018-02-24T17:15:51.994Z,21.02
2018-02-24T17:18:19.529Z,21.77
2018-02-24T17:23:26.017Z,22.37
2018-02-24T17:25:53.499Z,20.50
2018-02-24T17:28:20.999Z,22.33
2018-02-24T17:30:48.497Z,21.50
2018-02-24T17:33:15.998Z,22.15
2018-02-24T17:35:43.518Z,23.98
2018-02-24T17:38:11.020Z,23.10
2018-02-24T17:40:38.517Z,23.73
2018-02-24T17:43:06.016Z,23.98
2018-02-24T17:45:33.563Z,23.40
2018-02-24T17:48:01.048Z,24.33
2018-02-24T17:50:28.560Z,22.42
2018-02-24T17:52:56.092Z,23.67
2018-02-24T17:55:23.672Z,23.75
2018-02-24T17:57:51.410Z,23.73
2018-02-24T18:00:18.916Z,25.15
2018-02-24T18:02:46.424Z,22.85
2018-02-24T18:05:14.027Z,26.67
2018-02-24T18:07:41.512Z,26.83
2018-02-24T18:10:09.019Z,27.80
2018-02-24T18:12:36.546Z,26.20
2018-02-24T18:15:04.052Z,24.42
2018-02-24T18:17:31.568Z,24.73
2018-02-24T18:19:59.058Z,23.58
2018-02-24T18:22:26.535Z,24.73
2018-02-24T18:24:54.044Z,22.62
2018-02-24T18:27:21.527Z,25.37
2018-02-24T18:29:49.032Z,23.90
2018-02-24T18:32:16.524Z,22.85
2018-02-24T18:34:44.044Z,22.95
2018-02-24T18:37:11.588Z,23.73
2018-02-24T18:39:39.041Z,22.87
2018-02-24T18:42:06.543Z,24.25
2018-02-24T18:44:34.040Z,22.92
2018-02-24T18:47:01.536Z,22.85
2018-02-24T18:49:29.043Z,22.33
2018-02-24T18:51:56.528Z,21.05
2018-02-24T18:54:24.045Z,21.60
2018-02-24T18:56:51.564Z,22.33
2018-02-24T18:59:19.046Z,21.52
2018-02-24T19:01:46.548Z,19.65
2018-02-24T19:04:14.045Z,21.92
2018-02-24T19:06:41.539Z,22.20
2018-02-24T19:09:09.040Z,22.65
2018-02-24T19:11:36.611Z,20.90
2018-02-24T19:14:04.127Z,21.67
2018-02-24T19:16:31.628Z,20.60
2018-02-24T19:18:59.169Z,19.80
2018-02-24T19:21:26.668Z,20.37
2018-02-24T19:23:54.144Z,19.20
2018-02-24T19:26:21.646Z,19.40
2018-02-24T19:28:49.132Z,18.92
2018-02-24T19:31:16.623Z,18.33
2018-02-24T19:33:44.135Z,19.23
2018-02-24T19:36:11.639Z,19.45
2018-02-24T19:38:39.152Z,19.92
2018-02-24T19:41:06.678Z,19.83
2018-02-24T19:43:34.152Z,20.30
2018-02-24T19:46:01.647Z,19.52
2018-02-24T19:48:29.163Z,19.05
2018-02-24T19:50:56.647Z,17.70
2018-02-24T19:53:24.150Z,17.35
2018-02-24T19:55:51.642Z,16.95
2018-02-24T19:58:19.151Z,18.48
2018-02-24T20:00:46.687Z,17.98
2018-02-24T20:03:14.193Z,18.40
2018-02-24T20:05:41.690Z,19.08
2018-02-24T20:08:09.183Z,19.33
2018-02-24T20:10:36.687Z,16.95
2018-02-24T20:13:04.188Z,17.55
2018-02-24T20:18:12.644Z,15.18
2018-02-24T20:20:40.168Z,16.05
2018-02-24T20:23:07.676Z,15.90
2018-02-24T20:25:35.198Z,14.80
2018-02-24T20:28:02.703Z,13.80
2018-02-24T20:30:30.252Z,14.45
2018-02-24T20:32:57.738Z,14.70
2018-02-24T20:35:25.250Z,14.20
2018-02-24T20:37:52.767Z,13.18
2018-02-24T20:40:20.271Z,13.75
2018-02-24T20:42:47.767Z,11.82
2018-02-24T20:45:15.279Z,12.00
2018-02-24T20:47:42.800Z,11.23
2018-02-24T20:50:10.299Z,11.93
2018-02-24T20:52:37.983Z,11.77
2018-02-24T20:55:05.520Z,11.85
2018-02-24T20:57:33.017Z,10.73
2018-02-24T21:00:00.604Z,10.20
2018-02-24T21:02:28.182Z,11.48
2018-02-24T21:04:55.692Z,11.50
2018-02-24T21:07:23.179Z,10.93
2018-02-24T21:09:50.719Z,10.68
2018-02-24T21:12:18.218Z,10.95
2018-02-24T21:14:45.723Z,10.15
2018-02-24T21:17:13.220Z,10.82
2018-02-24T21:19:40.703Z,11.45
2018-02-24T21:22:08.170Z,12.37
2018-02-24T21:24:35.687Z,11.20
2018-02-24T21:27:03.247Z,11.38
2018-02-24T21:29:30.739Z,10.57
2018-02-24T21:31:58.239Z,11.85
2018-02-24T21:34:25.737Z,12.05
2018-02-24T21:36:53.239Z,11.73
2018-02-24T21:39:20.737Z,12.52
2018-02-24T21:41:48.227Z,12.35
2018-02-24T21:44:15.724Z,12.35
2018-02-24T21:46:43.208Z,12.27
2018-02-24T21:49:10.698Z,13.25
2018-02-24T21:51:38.196Z,12.07
2018-02-24T21:54:05.694Z,11.60
2018-02-24T21:56:33.214Z,11.40
2018-02-24T21:59:00.738Z,13.10
2018-02-24T22:01:28.227Z,12.23
2018-02-24T22:03:55.718Z,11.07
2018-02-24T22:06:23.209Z,11.80
2018-02-24T22:08:50.713Z,12.45
2018-02-24T22:11:18.208Z,11.50
2018-02-24T22:13:45.711Z,11.90
2018-02-24T22:16:13.212Z,12.27
2018-02-24T22:18:40.736Z,12.00
2018-02-24T22:21:08.245Z,12.68
2018-02-24T22:23:35.743Z,10.77
2018-02-24T22:26:03.248Z,12.73
2018-02-24T22:28:30.755Z,11.05
2018-02-24T22:30:58.265Z,11.93
2018-02-24T22:33:25.779Z,12.15
2018-02-24T22:35:53.277Z,11.98
2018-02-24T22:38:20.769Z,11.45
2018-02-24T22:40:48.268Z,12.20
2018-02-24T22:43:15.751Z,12.68
2018-02-24T22:45:43.247Z,12.30
2018-02-24T22:48:16.428Z,12.43
2018-02-24T22:50:43.928Z,11.15
2018-02-24T22:53:11.403Z,12.48
2018-02-24T22:55:38.887Z,11.80
2018-02-24T22:58:06.378Z,12.13
2018-02-24T23:00:33.873Z,12.23
2018-02-24T23:03:01.378Z,11.95
2018-02-24T23:05:28.867Z,12.40
2018-02-24T23:07:56.351Z,12.45
2018-02-24T23:10:23.851Z,12.68
2018-02-24T23:12:51.338Z,12.32
2018-02-24T23:15:18.827Z,12.02
2018-02-24T23:17:46.331Z,13.30
2018-02-24T23:20:13.823Z,11.95
2018-02-24T23:22:41.332Z,12.85
2018-02-24T23:25:08.836Z,11.90
2018-02-24T23:27:36.319Z,13.10
2018-02-24T23:30:03.819Z,12.40
2018-02-24T23:32:31.312Z,12.45
2018-02-24T23:34:58.852Z,13.38
2018-02-24T23:37:26.336Z,12.63
2018-02-24T23:39:53.841Z,13.00
2018-02-24T23:42:21.343Z,13.07
2018-02-24T23:44:48.854Z,13.20
2018-02-24T23:47:16.359Z,12.20
2018-02-24T23:49:43.855Z,12.18
2018-02-24T23:52:11.365Z,12.93
2018-02-24T23:54:38.868Z,12.95
2018-02-24T23:57:06.360Z,12.95
2018-02-24T23:59:33.868Z,12.45
